Airport View

Enter AWOS ICAO identifier for current METAR.

ex. KFNL

K1A5 290415Z AUTO 14003KT 10SM SCT050 SCT070 21/18 A2992 RMK AO2 T02110182

29 Sep 2020 04:09

Frequency: 118.225

Phone: 828-349-3156

Other Area AWOS: K24A - KRHP - KDZJ - KGKT

KAVL 290253Z 2903/2924 16005KT P6SM VCSH BKN015 FM290600 VRB04KT 3SM BR VCSH SCT004 BKN008 FM290900 34006KT 3SM -SHRA BR VCTS BKN004 BKN008CB FM291500 35010G20KT 6SM -SHRA BR BKN008 BKN015 FM292000 34008G16KT P6SM VCSH BKN025 BKN050